createdAt,value
2022-11-16T00:01:48.851Z,16.20
2022-11-16T00:04:16.682Z,15.45
2022-11-16T00:06:44.204Z,16.77
2022-11-16T00:09:28.917Z,15.63
2022-11-16T00:11:58.814Z,19.00
2022-11-16T00:14:28.976Z,17.13
2022-11-16T00:16:57.344Z,16.42
2022-11-16T00:19:25.424Z,14.75
2022-11-16T00:21:53.863Z,17.55
2022-11-16T00:24:24.109Z,20.15
2022-11-16T00:26:54.454Z,23.02
2022-11-16T00:29:24.415Z,23.13
2022-11-16T00:31:52.673Z,19.83
2022-11-16T00:34:22.744Z,18.38
2022-11-16T00:36:52.314Z,17.92
2022-11-16T00:39:19.989Z,18.05
2022-11-16T00:41:48.174Z,17.52
2022-11-16T00:44:16.235Z,16.10
2022-11-16T00:46:45.188Z,16.67
2022-11-16T00:49:12.981Z,14.40
2022-11-16T00:51:40.432Z,16.70
2022-11-16T00:54:10.065Z,17.95
2022-11-16T00:56:38.460Z,18.02
2022-11-16T00:59:07.024Z,16.80
2022-11-16T01:01:34.739Z,18.13
2022-11-16T01:04:03.073Z,19.45
2022-11-16T01:06:30.507Z,17.52
2022-11-16T01:08:57.684Z,20.58
2022-11-16T01:11:43.985Z,16.38
2022-11-16T01:14:11.650Z,18.00
2022-11-16T01:16:39.169Z,15.32
2022-11-16T01:19:06.643Z,17.08
2022-11-16T01:21:34.685Z,20.30
2022-11-16T01:24:02.253Z,18.23
2022-11-16T01:26:30.026Z,17.30
2022-11-16T01:28:59.053Z,17.15
2022-11-16T01:31:28.959Z,16.17
2022-11-16T01:33:57.192Z,17.58
2022-11-16T01:36:27.725Z,15.20
2022-11-16T01:38:57.254Z,15.10
2022-11-16T01:41:28.143Z,14.48
2022-11-16T01:44:02.399Z,16.92
2022-11-16T01:46:46.234Z,14.63
2022-11-16T01:49:20.539Z,14.95
2022-11-16T01:51:55.167Z,14.55
2022-11-16T01:54:25.237Z,14.80
2022-11-16T01:56:57.393Z,14.70
2022-11-16T01:59:36.877Z,14.07
2022-11-16T02:02:05.871Z,15.15
2022-11-16T02:04:34.001Z,13.05
2022-11-16T02:07:23.804Z,16.10
2022-11-16T02:10:19.049Z,14.55
2022-11-16T02:13:19.489Z,15.93
2022-11-16T02:15:48.336Z,20.40
2022-11-16T02:18:33.663Z,13.13
2022-11-16T02:21:59.758Z,18.05
2022-11-16T02:24:35.694Z,12.80
2022-11-16T02:27:26.878Z,16.58
2022-11-16T02:29:56.073Z,17.25
2022-11-16T02:32:32.608Z,16.33
2022-11-16T02:35:08.031Z,15.15
2022-11-16T02:37:40.063Z,16.02
2022-11-16T02:40:12.200Z,16.58
2022-11-16T02:42:46.364Z,16.13
2022-11-16T02:45:20.525Z,19.48
2022-11-16T02:47:51.076Z,16.90
2022-11-16T02:50:24.458Z,17.38
2022-11-16T02:52:53.864Z,17.02
2022-11-16T02:55:22.910Z,16.17
2022-11-16T02:57:57.745Z,14.70
2022-11-16T03:00:44.072Z,17.80
2022-11-16T03:03:23.424Z,17.85
2022-11-16T03:05:58.624Z,20.13
2022-11-16T03:08:36.752Z,18.15
2022-11-16T03:11:27.318Z,17.10
2022-11-16T03:14:14.090Z,16.10
2022-11-16T03:16:49.224Z,18.63
2022-11-16T03:19:26.952Z,15.13
2022-11-16T03:22:18.850Z,16.30
2022-11-16T03:24:46.581Z,20.48
2022-11-16T03:27:32.631Z,17.10
2022-11-16T03:30:06.214Z,18.20
2022-11-16T03:32:51.449Z,21.17
2022-11-16T03:35:49.745Z,20.75
2022-11-16T03:38:21.107Z,20.20
2022-11-16T03:40:51.190Z,18.55
2022-11-16T03:43:21.096Z,21.27
2022-11-16T03:45:49.336Z,21.48
2022-11-16T03:48:17.078Z,20.30
2022-11-16T03:50:46.103Z,16.77
2022-11-16T03:53:14.760Z,14.23
2022-11-16T03:55:46.977Z,22.35
2022-11-16T03:58:19.037Z,15.98
2022-11-16T04:00:46.927Z,19.85
2022-11-16T04:03:14.809Z,17.95
2022-11-16T04:06:03.617Z,16.20
2022-11-16T04:08:49.478Z,17.38
2022-11-16T04:11:39.248Z,16.88
2022-11-16T04:14:33.889Z,17.38
2022-11-16T04:17:19.596Z,18.80
2022-11-16T04:20:05.426Z,17.73
2022-11-16T04:22:56.112Z,21.83
2022-11-16T04:25:33.085Z,20.40
2022-11-16T04:28:16.539Z,23.40
2022-11-16T04:31:13.148Z,16.65
2022-11-16T04:34:04.873Z,21.98
2022-11-16T04:36:51.044Z,21.20
2022-11-16T04:42:04.773Z,21.90
2022-11-16T04:44:55.840Z,20.65
2022-11-16T04:47:26.249Z,20.52
2022-11-16T04:49:53.513Z,21.00
2022-11-16T04:52:21.784Z,23.25
2022-11-16T04:54:49.578Z,25.10
2022-11-16T04:57:18.559Z,20.63
2022-11-16T04:59:48.354Z,23.13
2022-11-16T05:02:15.562Z,21.92
2022-11-16T05:04:48.610Z,19.73
2022-11-16T05:07:17.027Z,17.83
2022-11-16T05:09:48.719Z,17.25
2022-11-16T05:12:25.598Z,17.92
2022-11-16T05:14:57.329Z,18.67
2022-11-16T05:17:28.038Z,19.17
2022-11-16T05:20:15.874Z,18.73
2022-11-16T05:22:57.149Z,18.48
2022-11-16T05:25:29.315Z,19.30
2022-11-16T05:27:59.365Z,21.80
2022-11-16T05:30:29.898Z,23.85
2022-11-16T05:33:00.488Z,19.25
2022-11-16T05:35:30.491Z,17.73
2022-11-16T05:37:59.446Z,20.05
2022-11-16T05:40:26.836Z,21.73
2022-11-16T05:42:58.896Z,20.58
2022-11-16T05:45:29.288Z,20.15
2022-11-16T05:47:58.947Z,18.27
2022-11-16T05:50:26.962Z,21.38
2022-11-16T05:53:10.417Z,18.02
2022-11-16T05:55:38.642Z,20.48
2022-11-16T05:58:06.056Z,26.10
2022-11-16T06:00:34.455Z,20.55
2022-11-16T06:03:02.511Z,21.30
2022-11-16T06:05:40.007Z,15.63
2022-11-16T06:08:08.764Z,21.38
2022-11-16T06:10:37.240Z,19.20
2022-11-16T06:13:06.100Z,14.05
2022-11-16T06:15:38.914Z,20.80
2022-11-16T06:18:08.977Z,15.70
2022-11-16T06:20:38.975Z,18.35
2022-11-16T06:23:08.031Z,13.68
2022-11-16T06:25:39.077Z,17.75
2022-11-16T06:28:08.294Z,12.02
2022-11-16T06:30:38.801Z,11.43
2022-11-16T06:33:07.367Z,22.50
2022-11-16T06:35:35.273Z,15.35
2022-11-16T06:38:03.505Z,14.15
2022-11-16T06:40:30.890Z,17.65
2022-11-16T06:43:00.449Z,16.52
2022-11-16T06:45:27.780Z,17.55
2022-11-16T06:47:57.503Z,19.48
2022-11-16T06:50:25.663Z,17.60
2022-11-16T06:52:53.161Z,22.25
2022-11-16T06:55:20.971Z,22.42
2022-11-16T06:57:48.819Z,15.13
2022-11-16T07:00:17.470Z,18.48
2022-11-16T07:02:45.915Z,13.95
2022-11-16T07:05:16.483Z,17.70
2022-11-16T07:07:45.895Z,19.80
2022-11-16T07:10:14.028Z,20.05
2022-11-16T07:12:42.610Z,18.88
2022-11-16T07:15:10.156Z,16.65
2022-11-16T07:17:41.223Z,18.02
2022-11-16T07:20:09.395Z,15.27
2022-11-16T07:22:37.598Z,15.68
2022-11-16T07:25:05.696Z,16.60
2022-11-16T07:27:32.852Z,16.63
2022-11-16T07:30:02.435Z,19.70
2022-11-16T07:33:52.546Z,20.65
2022-11-16T07:37:35.261Z,19.05
2022-11-16T07:40:21.594Z,16.42
2022-11-16T07:42:49.796Z,14.05
2022-11-16T07:45:20.033Z,12.50
2022-11-16T07:48:00.745Z,18.15
2022-11-16T07:50:52.805Z,15.60
2022-11-16T07:53:20.912Z,13.80
2022-11-16T07:55:54.779Z,14.35
2022-11-16T07:58:24.697Z,23.70
2022-11-16T08:00:53.929Z,17.23
2022-11-16T08:03:24.630Z,22.48
2022-11-16T08:06:03.248Z,23.50
2022-11-16T08:08:30.998Z,22.45
2022-11-16T08:11:08.168Z,24.58
2022-11-16T08:13:38.065Z,24.13
2022-11-16T08:16:11.120Z,28.67
2022-11-16T08:18:41.934Z,24.63
2022-11-16T08:21:11.597Z,22.88
2022-11-16T08:23:42.690Z,32.15
2022-11-16T08:26:16.243Z,35.03
2022-11-16T08:28:51.141Z,27.63
2022-11-16T08:31:26.948Z,26.80
2022-11-16T08:34:01.068Z,27.52
2022-11-16T08:36:29.246Z,29.25
2022-11-16T08:38:57.012Z,32.83
2022-11-16T08:41:24.818Z,30.00
2022-11-16T08:43:53.731Z,29.42
2022-11-16T08:46:22.901Z,25.27
2022-11-16T08:48:57.643Z,27.67
2022-11-16T08:51:26.018Z,30.08
2022-11-16T08:54:05.343Z,31.83
2022-11-16T08:56:35.334Z,33.28
2022-11-16T08:59:03.708Z,28.33
2022-11-16T09:01:33.796Z,31.25
2022-11-16T09:04:01.129Z,28.27
2022-11-16T09:06:28.569Z,31.02
2022-11-16T09:08:56.304Z,35.30
2022-11-16T09:11:25.738Z,31.60
2022-11-16T09:13:55.032Z,32.65
2022-11-16T09:16:23.279Z,34.03
2022-11-16T09:18:51.963Z,36.88
2022-11-16T09:21:22.272Z,35.50
2022-11-16T09:23:50.641Z,25.88
2022-11-16T09:26:21.473Z,29.00
2022-11-16T09:29:01.462Z,29.55
2022-11-16T09:31:31.707Z,32.30
2022-11-16T09:33:59.720Z,30.77
2022-11-16T09:36:28.971Z,27.10
2022-11-16T09:42:10.478Z,29.45
2022-11-16T09:44:47.176Z,27.58
2022-11-16T09:47:52.023Z,39.20
2022-11-16T09:50:32.404Z,38.20
2022-11-16T09:53:15.091Z,47.55
2022-11-16T09:55:54.687Z,48.00
2022-11-16T09:58:28.501Z,35.42
2022-11-16T10:01:16.439Z,42.45
2022-11-16T10:03:50.518Z,42.70
2022-11-16T10:06:28.234Z,52.15
2022-11-16T10:08:56.976Z,39.05
2022-11-16T10:11:42.204Z,44.33
2022-11-16T10:14:38.444Z,39.20
2022-11-16T10:17:08.726Z,45.15
2022-11-16T10:19:44.170Z,36.78
2022-11-16T10:22:27.164Z,36.95
2022-11-16T10:24:58.363Z,40.45
2022-11-16T10:27:39.546Z,44.53
2022-11-16T10:30:16.755Z,49.53
2022-11-16T10:32:59.836Z,40.70
2022-11-16T10:35:34.307Z,43.67
2022-11-16T10:38:09.556Z,46.85
2022-11-16T10:40:38.522Z,26.60
2022-11-16T10:43:18.213Z,39.50
2022-11-16T10:45:58.205Z,26.27
2022-11-16T10:48:44.874Z,37.42
2022-11-16T10:51:12.214Z,47.80
2022-11-16T10:53:42.715Z,48.53
2022-11-16T10:56:22.786Z,47.65
2022-11-16T10:59:12.881Z,40.88
2022-11-16T11:01:42.080Z,40.65
2022-11-16T11:04:39.307Z,38.92
2022-11-16T11:07:29.794Z,33.50
2022-11-16T11:09:57.851Z,30.30
2022-11-16T11:12:38.858Z,30.63
2022-11-16T11:15:12.708Z,28.08
2022-11-16T11:17:44.789Z,31.55
2022-11-16T11:20:18.413Z,30.33
2022-11-16T11:23:00.840Z,30.42
2022-11-16T11:25:37.352Z,28.80
2022-11-16T11:28:17.164Z,27.17
2022-11-16T11:31:04.342Z,28.35
2022-11-16T11:33:54.581Z,33.28
2022-11-16T11:36:25.338Z,27.67
2022-11-16T11:39:00.722Z,26.30
2022-11-16T11:41:40.303Z,26.40
2022-11-16T11:44:17.769Z,22.83
2022-11-16T11:50:04.935Z,26.08
2022-11-16T11:52:39.759Z,26.95
2022-11-16T11:55:08.541Z,29.60
2022-11-16T11:57:42.751Z,32.33
2022-11-16T12:00:15.707Z,24.13
2022-11-16T12:03:05.136Z,26.40
2022-11-16T12:05:48.935Z,25.95
2022-11-16T12:08:34.691Z,32.50
2022-11-16T12:11:31.067Z,29.23
2022-11-16T12:14:23.357Z,28.00
2022-11-16T12:17:22.192Z,28.55
2022-11-16T12:20:07.900Z,31.08
2022-11-16T12:22:56.558Z,28.15
2022-11-16T12:25:52.741Z,26.38
2022-11-16T12:28:57.734Z,32.47
2022-11-16T12:31:45.242Z,25.65
2022-11-16T12:34:41.797Z,25.95
2022-11-16T12:37:39.558Z,28.65
2022-11-16T12:40:26.945Z,23.58
2022-11-16T12:42:56.931Z,23.90
2022-11-16T12:46:12.264Z,25.85
2022-11-16T12:48:44.912Z,20.20
2022-11-16T12:51:32.084Z,26.50
2022-11-16T12:54:14.457Z,22.67
2022-11-16T12:57:07.177Z,24.70
2022-11-16T12:59:53.463Z,25.45
2022-11-16T13:02:45.325Z,22.05
2022-11-16T13:05:40.635Z,23.70
2022-11-16T13:08:40.403Z,22.02
2022-11-16T13:11:24.887Z,19.30
2022-11-16T13:13:58.094Z,22.77
2022-11-16T13:16:26.432Z,22.63
2022-11-16T13:18:55.654Z,22.38
2022-11-16T13:21:29.264Z,25.35
2022-11-16T13:24:22.639Z,20.92
2022-11-16T13:27:04.014Z,24.17
2022-11-16T13:29:47.056Z,25.50
2022-11-16T13:32:21.399Z,30.67
2022-11-16T13:34:49.545Z,26.75
2022-11-16T13:37:38.905Z,24.42
2022-11-16T13:40:06.971Z,25.20
2022-11-16T13:42:57.996Z,23.33
2022-11-16T13:45:31.932Z,23.55
2022-11-16T13:48:00.831Z,29.52
2022-11-16T13:50:38.169Z,26.45
2022-11-16T13:56:08.254Z,31.45
2022-11-16T13:58:38.152Z,24.42
2022-11-16T14:01:11.079Z,23.35
2022-11-16T14:03:40.857Z,26.63
2022-11-16T14:06:14.107Z,19.83
2022-11-16T14:08:46.642Z,26.17
2022-11-16T14:11:35.849Z,31.30
2022-11-16T14:14:08.047Z,27.67
2022-11-16T14:16:50.249Z,27.42
2022-11-16T14:19:54.808Z,31.10
2022-11-16T14:22:53.912Z,26.75
2022-11-16T14:25:33.787Z,26.02
2022-11-16T14:28:23.211Z,20.63
2022-11-16T14:31:14.873Z,26.40
2022-11-16T14:33:42.923Z,23.27
2022-11-16T14:36:11.422Z,28.10
2022-11-16T14:38:46.756Z,22.55
2022-11-16T14:41:21.948Z,27.05
2022-11-16T14:43:54.696Z,28.55
2022-11-16T14:46:36.572Z,28.60
2022-11-16T14:49:05.316Z,28.80
2022-11-16T14:51:36.114Z,25.65
2022-11-16T14:54:30.487Z,30.00
2022-11-16T14:57:03.109Z,26.95
2022-11-16T14:59:31.529Z,36.72
2022-11-16T15:02:05.219Z,36.58
2022-11-16T15:04:33.176Z,34.22
2022-11-16T15:07:05.358Z,49.67
2022-11-16T15:09:40.245Z,41.88
2022-11-16T15:12:33.853Z,51.72
2022-11-16T15:15:06.892Z,52.20
2022-11-16T15:17:34.865Z,50.35
2022-11-16T15:20:14.555Z,52.97
2022-11-16T15:22:45.363Z,50.80
2022-11-16T15:25:35.908Z,53.28
2022-11-16T15:28:17.471Z,51.15
2022-11-16T15:31:07.947Z,57.08
2022-11-16T15:33:41.711Z,53.55
2022-11-16T15:36:41.330Z,54.60
2022-11-16T15:39:24.841Z,54.35
2022-11-16T15:41:52.756Z,58.28
2022-11-16T15:44:22.882Z,59.75
2022-11-16T15:46:53.673Z,61.45
2022-11-16T15:49:20.917Z,57.85
2022-11-16T15:51:48.090Z,57.42
2022-11-16T15:54:23.795Z,62.05
2022-11-16T15:56:53.751Z,63.58
2022-11-16T15:59:31.774Z,56.45
2022-11-16T16:01:59.358Z,56.13
2022-11-16T16:04:29.288Z,53.50
2022-11-16T16:06:59.445Z,53.03
2022-11-16T16:09:31.911Z,51.42
2022-11-16T16:12:24.876Z,51.67
2022-11-16T16:14:53.166Z,53.78
2022-11-16T16:17:29.736Z,56.70
2022-11-16T16:20:02.675Z,52.50
2022-11-16T16:22:34.180Z,51.85
2022-11-16T16:25:02.686Z,55.33
2022-11-16T16:27:32.235Z,52.45
2022-11-16T16:30:06.104Z,58.72
2022-11-16T16:32:36.806Z,56.97
2022-11-16T16:35:07.620Z,64.68
2022-11-16T16:37:37.315Z,62.50
2022-11-16T16:40:05.145Z,63.03
2022-11-16T16:42:33.187Z,56.15
2022-11-16T16:45:02.147Z,59.72
2022-11-16T16:47:32.014Z,52.15
2022-11-16T16:49:59.697Z,55.85
2022-11-16T16:52:27.949Z,53.40
2022-11-16T16:54:55.308Z,50.88
2022-11-16T16:57:22.845Z,45.08
2022-11-16T16:59:50.046Z,45.67
2022-11-16T17:02:17.559Z,42.08
2022-11-16T17:04:47.840Z,41.97
2022-11-16T17:07:16.418Z,45.00
2022-11-16T17:09:44.168Z,45.97
2022-11-16T17:12:12.412Z,44.42
2022-11-16T17:14:39.978Z,43.25
2022-11-16T17:17:07.590Z,42.97
2022-11-16T17:19:34.872Z,44.15
2022-11-16T17:22:02.127Z,44.78
2022-11-16T17:24:29.365Z,42.65
2022-11-16T17:26:57.058Z,39.55
2022-11-16T17:29:25.382Z,41.63
2022-11-16T17:31:52.641Z,34.83
2022-11-16T17:34:20.509Z,44.67
2022-11-16T17:36:47.888Z,33.65
2022-11-16T17:39:16.253Z,44.30
2022-11-16T17:41:45.791Z,37.25
2022-11-16T17:44:17.170Z,40.20
2022-11-16T17:46:47.438Z,37.83
2022-11-16T17:49:16.492Z,40.50
2022-11-16T17:51:43.880Z,39.83
2022-11-16T17:54:11.040Z,43.25
2022-11-16T17:56:38.820Z,33.13
2022-11-16T17:59:06.321Z,33.22
2022-11-16T18:01:36.173Z,38.50
2022-11-16T18:04:05.059Z,38.72
2022-11-16T18:06:33.341Z,40.63
2022-11-16T18:09:00.743Z,40.40
2022-11-16T18:11:28.956Z,38.72
2022-11-16T18:14:01.379Z,37.22
2022-11-16T18:16:31.933Z,37.88
2022-11-16T18:19:04.487Z,38.58
2022-11-16T18:21:34.052Z,36.88
2022-11-16T18:24:01.369Z,39.15
2022-11-16T18:26:28.730Z,43.88
2022-11-16T18:28:57.412Z,37.95
2022-11-16T18:31:25.129Z,38.55
2022-11-16T18:33:53.364Z,38.50
2022-11-16T18:36:22.346Z,44.72
2022-11-16T18:38:50.285Z,38.75
2022-11-16T18:41:26.487Z,37.70
2022-11-16T18:43:56.811Z,37.58
2022-11-16T18:46:28.553Z,39.03
2022-11-16T18:48:56.881Z,41.78
2022-11-16T18:51:27.199Z,33.03
2022-11-16T18:53:55.449Z,34.65
2022-11-16T18:56:23.783Z,34.20
2022-11-16T18:58:52.896Z,35.17
2022-11-16T19:01:23.561Z,32.08
2022-11-16T19:03:52.671Z,30.33
2022-11-16T19:06:21.968Z,32.92
2022-11-16T19:09:04.046Z,33.55
2022-11-16T19:11:31.358Z,38.15
2022-11-16T19:14:08.036Z,39.30
2022-11-16T19:16:36.479Z,34.13
2022-11-16T19:19:04.558Z,31.58
2022-11-16T19:21:32.067Z,33.47
2022-11-16T19:23:59.299Z,27.30
2022-11-16T19:26:27.967Z,27.67
2022-11-16T19:28:55.690Z,29.92
2022-11-16T19:31:29.025Z,34.03
2022-11-16T19:34:16.976Z,27.15
2022-11-16T19:36:45.149Z,37.72
2022-11-16T19:39:12.299Z,34.13
2022-11-16T19:41:39.538Z,30.95
2022-11-16T19:44:06.822Z,25.10
2022-11-16T19:46:36.095Z,24.13
2022-11-16T19:49:03.839Z,27.58
2022-11-16T19:51:33.283Z,24.05
2022-11-16T19:54:02.697Z,26.08
2022-11-16T19:56:30.474Z,25.60
2022-11-16T19:58:57.953Z,24.35
2022-11-16T20:01:28.976Z,30.95
2022-11-16T20:04:02.365Z,31.13
2022-11-16T20:06:36.623Z,31.77
2022-11-16T20:09:13.236Z,31.35
2022-11-16T20:11:41.964Z,28.05
2022-11-16T20:14:11.942Z,32.17
2022-11-16T20:16:41.254Z,30.08
2022-11-16T20:19:10.031Z,24.48
2022-11-16T20:21:42.679Z,31.45
2022-11-16T20:24:13.392Z,29.17
2022-11-16T20:26:48.879Z,28.77
2022-11-16T20:29:19.425Z,28.58
2022-11-16T20:31:47.399Z,27.42
2022-11-16T20:34:16.970Z,32.67
2022-11-16T20:36:49.808Z,27.73
2022-11-16T20:39:21.079Z,29.92
2022-11-16T20:41:48.500Z,32.25
2022-11-16T20:44:24.181Z,31.08
2022-11-16T20:46:52.920Z,30.38
2022-11-16T20:49:20.859Z,29.70
2022-11-16T20:51:50.682Z,34.33
2022-11-16T20:54:17.835Z,30.60
2022-11-16T20:56:44.992Z,30.98
2022-11-16T20:59:12.197Z,34.67
2022-11-16T21:01:41.761Z,32.33
2022-11-16T21:04:11.043Z,31.83
2022-11-16T21:06:38.234Z,34.55
2022-11-16T21:09:05.708Z,37.53
2022-11-16T21:11:52.334Z,34.90
2022-11-16T21:14:21.839Z,37.33
2022-11-16T21:16:50.888Z,37.65
2022-11-16T21:19:18.731Z,35.38
2022-11-16T21:21:46.077Z,37.90
2022-11-16T21:24:13.321Z,36.30
2022-11-16T21:26:40.524Z,38.17
2022-11-16T21:29:07.967Z,39.22
2022-11-16T21:31:37.696Z,38.13
2022-11-16T21:34:06.005Z,37.05
2022-11-16T21:36:33.886Z,37.92
2022-11-16T21:39:01.535Z,37.65
2022-11-16T21:41:29.070Z,36.45
2022-11-16T21:43:56.366Z,35.15
2022-11-16T21:46:25.935Z,34.50
2022-11-16T21:48:56.770Z,36.40
2022-11-16T21:51:27.404Z,39.85
2022-11-16T21:53:55.264Z,36.70
2022-11-16T21:56:24.789Z,40.17
2022-11-16T21:58:53.610Z,36.03
2022-11-16T22:01:22.850Z,35.72
2022-11-16T22:04:10.403Z,35.90
2022-11-16T22:06:56.406Z,36.60
2022-11-16T22:09:23.776Z,36.65
2022-11-16T22:11:51.345Z,46.80
2022-11-16T22:14:18.507Z,41.50
2022-11-16T22:16:46.680Z,37.05
2022-11-16T22:19:13.879Z,38.72
2022-11-16T22:21:41.269Z,38.75
2022-11-16T22:24:08.804Z,37.92
2022-11-16T22:26:36.230Z,39.45
2022-11-16T22:29:03.378Z,38.25
2022-11-16T22:31:30.732Z,37.55
2022-11-16T22:33:58.106Z,41.33
2022-11-16T22:36:25.539Z,38.80
2022-11-16T22:38:53.592Z,36.25
2022-11-16T22:41:21.063Z,43.20
2022-11-16T22:43:49.931Z,45.83
2022-11-16T22:46:17.076Z,45.20
2022-11-16T22:48:45.179Z,51.35
2022-11-16T22:51:25.654Z,52.35
2022-11-16T22:53:57.619Z,47.78
2022-11-16T22:56:25.621Z,45.05
2022-11-16T22:58:53.432Z,42.17
2022-11-16T23:01:21.501Z,39.47
2022-11-16T23:03:49.871Z,40.75
2022-11-16T23:06:18.425Z,38.80
2022-11-16T23:08:45.704Z,37.88
2022-11-16T23:11:39.896Z,33.75
2022-11-16T23:14:29.628Z,34.45
2022-11-16T23:16:57.484Z,38.40
2022-11-16T23:19:44.026Z,32.97
2022-11-16T23:22:36.143Z,33.83
2022-11-16T23:25:24.231Z,33.80
2022-11-16T23:28:18.871Z,33.33
2022-11-16T23:30:46.278Z,35.85
2022-11-16T23:33:13.724Z,35.10
2022-11-16T23:35:41.089Z,31.73
2022-11-16T23:38:08.559Z,37.22
2022-11-16T23:40:40.209Z,38.13
2022-11-16T23:43:28.844Z,35.58
2022-11-16T23:45:56.251Z,38.70
2022-11-16T23:48:24.202Z,31.15
2022-11-16T23:50:51.543Z,35.22
2022-11-16T23:53:19.043Z,35.30
2022-11-16T23:55:47.715Z,39.75
2022-11-16T23:58:15.577Z,38.70
